Norrskar — SGFD — position and weather

sailwx.info

Track history (hours):
 
Tides and Currents Weather Stations Pressure Air Temp Water Temp Dewpoint Dewpoint Depression Visibility Wind Speed Wind Dir Waves Ship Positions

Norrskar

Last reported at 2017-Jun-27 01:30 UTC. Time now 2017-Jun-27 01:50 UTC.
Position N 59°20' E 018°05'.

Length 35 m.

Type: Ship. MMSI: 265522430.

Date/timePositionNaut miles runAvg speedWind from/ knotsBaromVisibWave heightAir tempDewpointWater temp
2017-Jun-27 01:30N 59°20' E 018°05'0 0.0
2017-Jun-27 01:00N 59°20' E 018°05'0 0.0
2017-Jun-27 00:30N 59°20' E 018°05'0 0.0
2017-Jun-27 00:00N 59°20' E 018°05'0 0.0
2017-Jun-26 23:30N 59°20' E 018°05'0 0.0
2017-Jun-26 23:00N 59°20' E 018°05'0 0.0
2017-Jun-26 22:30N 59°20' E 018°05'0 0.0
2017-Jun-26 22:00N 59°20' E 018°05'0 0.0
2017-Jun-26 21:30N 59°20' E 018°05'0 0.0
2017-Jun-26 21:00N 59°20' E 018°05'0 0.0
2017-Jun-26 20:30N 59°20' E 018°05'0 0.0
2017-Jun-26 20:00N 59°20' E 018°05'2 4.5
2017-Jun-26 19:31N 59°19' E 018°09'4 7.8
2017-Jun-26 19:00N 59°22' E 018°15'4 8.0
2017-Jun-26 18:30N 59°24' E 018°21'1 2.3
2017-Jun-26 17:51N 59°23' E 018°24'1 4.4
2017-Jun-26 17:30N 59°24' E 018°21'3 5.2
2017-Jun-26 17:01N 59°23' E 018°17'3 6.6
2017-Jun-26 16:30N 59°20' E 018°13'4 8.2
2017-Jun-26 16:01N 59°20' E 018°05'0 0.1
2017-Jun-26 15:31N 59°20' E 018°05'4 7.0
2017-Jun-26 15:01N 59°20' E 018°12'3 5.6
2017-Jun-26 14:31N 59°22' E 018°16'6 6.3
2017-Jun-26 13:30N 59°26' E 018°25'2 0.6
2017-Jun-26 10:50N 59°25' E 018°29'3 8.4
2017-Jun-26 10:30N 59°26' E 018°23'3 6.2
2017-Jun-26 10:01N 59°23' E 018°20'5 9.8
2017-Jun-26 09:30N 59°20' E 018°12'4 8.0
2017-Jun-26 09:01N 59°20' E 018°05'0 0.0
2017-Jun-26 08:31N 59°20' E 018°05'0 0.0
2017-Jun-26 08:01N 59°20' E 018°05'0 0.0
2017-Jun-26 07:30N 59°20' E 018°05'0 0.0
2017-Jun-26 07:01N 59°20' E 018°05'0 0.0
2017-Jun-26 06:31N 59°20' E 018°05'0 0.0
2017-Jun-26 06:01N 59°20' E 018°05'0 0.0
2017-Jun-26 05:31N 59°20' E 018°05'0 0.0
2017-Jun-26 05:01N 59°20' E 018°05'0 0.0
2017-Jun-26 04:31N 59°20' E 018°05'0 0.0
2017-Jun-26 04:01N 59°20' E 018°05'0 0.0
2017-Jun-26 03:31N 59°20' E 018°05'0 0.0
2017-Jun-26 03:01N 59°20' E 018°05'0 0.0
2017-Jun-26 02:31N 59°20' E 018°05'0 0.0
2017-Jun-26 02:01N 59°20' E 018°05'0 0.0
2017-Jun-26 01:31N 59°20' E 018°05'0 0.0
2017-Jun-26 01:01N 59°20' E 018°05'0 0.0
2017-Jun-26 00:31N 59°20' E 018°05'0 0.0
2017-Jun-26 00:01N 59°20' E 018°05'0 0.0
2017-Jun-25 23:30N 59°20' E 018°05'0 0.0
2017-Jun-25 23:01N 59°20' E 018°05'0 0.0
2017-Jun-25 22:31N 59°20' E 018°05'0 0.0
2017-Jun-25 22:01N 59°20' E 018°05'0 0.0
2017-Jun-25 21:31N 59°20' E 018°05'0 0.0
2017-Jun-25 21:01N 59°20' E 018°05'0 0.0
2017-Jun-25 20:31N 59°20' E 018°05'0 0.0
2017-Jun-25 20:01N 59°20' E 018°05'0 0.0
2017-Jun-25 19:31N 59°20' E 018°05'0 0.0
2017-Jun-25 19:01N 59°20' E 018°05'0 0.0
2017-Jun-25 18:30N 59°20' E 018°05'0 0.0
2017-Jun-25 18:00N 59°20' E 018°05'2 4.4
2017-Jun-25 17:30N 59°19' E 018°09'4 7.0
2017-Jun-25 17:00N 59°21' E 018°14'4 8.2
2017-Jun-25 16:30N 59°24' E 018°21'3 6.1
2017-Jun-25 15:59N 59°25' E 018°26'7 8.7
2017-Jun-25 15:12N 59°22' E 018°38'2 9.4
2017-Jun-25 14:59N 59°22' E 018°42'8 5.6
2017-Jun-25 13:29N 59°17' E 018°55'5 2.7
2017-Jun-25 11:33N 59°20' E 018°46'1 9.8
2017-Jun-25 11:29N 59°21' E 018°46'10 8.2
2017-Jun-25 10:15N 59°25' E 018°28'310.3
2017-Jun-25 10:00N 59°26' E 018°23'3 6.8
2017-Jun-25 09:30N 59°23' E 018°20'4 8.6
2017-Jun-25 09:01N 59°20' E 018°13'4 8.4
2017-Jun-25 08:30N 59°20' E 018°05'0 0.0
2017-Jun-25 08:01N 59°20' E 018°05'0 0.0
2017-Jun-25 07:31N 59°20' E 018°05'0 0.0
2017-Jun-25 07:01N 59°20' E 018°05'0 0.0
2017-Jun-25 06:30N 59°20' E 018°05'0 0.0
2017-Jun-25 06:01N 59°20' E 018°05'0 0.0
2017-Jun-25 05:30N 59°20' E 018°05'0 0.0
2017-Jun-25 05:01N 59°20' E 018°05'0 0.0
2017-Jun-25 04:31N 59°20' E 018°05'0 0.0
2017-Jun-25 04:00N 59°20' E 018°05'0 0.0
2017-Jun-25 03:31N 59°20' E 018°05'0 0.0
2017-Jun-25 03:01N 59°20' E 018°05'0 0.0
2017-Jun-25 02:31N 59°20' E 018°05'0 0.0
2017-Jun-25 02:01N 59°20' E 018°05'0 0.0
2017-Jun-25 01:31N 59°20' E 018°05'0 0.0
2017-Jun-25 01:00N 59°20' E 018°05'0 0.0
2017-Jun-25 00:31N 59°20' E 018°05'0 0.0
2017-Jun-25 00:00N 59°20' E 018°05'0 0.0
2017-Jun-24 23:31N 59°20' E 018°05'0 0.0
2017-Jun-24 23:01N 59°20' E 018°05'0 0.0
2017-Jun-24 22:30N 59°20' E 018°05'0 0.0
2017-Jun-24 22:00N 59°20' E 018°05'0 0.0
2017-Jun-24 21:31N 59°20' E 018°05'0 0.0
2017-Jun-24 21:01N 59°20' E 018°05'0 0.0
2017-Jun-24 20:30N 59°20' E 018°05'0 0.0
2017-Jun-24 20:00N 59°20' E 018°05'0 0.0
2017-Jun-24 19:31N 59°20' E 018°05'0 0.0
2017-Jun-24 19:00N 59°20' E 018°05'0 0.0
2017-Jun-24 18:31N 59°20' E 018°05'0 0.0
2017-Jun-24 18:01N 59°20' E 018°05'2 4.4
2017-Jun-24 17:30N 59°19' E 018°09'4 7.0
2017-Jun-24 17:00N 59°21' E 018°14'4 8.6
2017-Jun-24 16:30N 59°24' E 018°21'3 6.1
2017-Jun-24 15:59N 59°25' E 018°27'1 0.1
2017-Jun-24 10:12N 59°25' E 018°28'210.2
2017-Jun-24 10:00N 59°26' E 018°24'3 6.0
2017-Jun-24 09:30N 59°23' E 018°20'5 9.7
2017-Jun-24 09:00N 59°20' E 018°13'4 8.5
2017-Jun-24 08:30N 59°20' E 018°05'0 0.1
2017-Jun-24 08:00N 59°20' E 018°05'0 0.0
2017-Jun-24 07:30N 59°20' E 018°05'0 0.0
2017-Jun-24 07:00N 59°20' E 018°05'0 0.0
2017-Jun-24 06:30N 59°20' E 018°05'0 0.0
2017-Jun-24 06:00N 59°20' E 018°05'0 0.0
2017-Jun-24 05:30N 59°20' E 018°05'0 0.0
2017-Jun-24 05:00N 59°20' E 018°05'0 0.0
2017-Jun-24 04:30N 59°20' E 018°05'0 0.0
2017-Jun-24 04:00N 59°20' E 018°05'0 0.0
2017-Jun-24 03:30N 59°20' E 018°05'0 0.0
2017-Jun-24 03:00N 59°20' E 018°05'0 0.0
2017-Jun-24 02:30N 59°20' E 018°05'0 0.0
2017-Jun-24 02:00N 59°20' E 018°05'0 0.0
2017-Jun-24 01:30N 59°20' E 018°05'0 0.0
2017-Jun-24 01:00N 59°20' E 018°05'0 0.0
2017-Jun-24 00:30N 59°20' E 018°05'0 0.0
2017-Jun-24 00:00N 59°20' E 018°05'0 0.0
2017-Jun-23 23:29N 59°20' E 018°05'0 0.0
2017-Jun-23 23:00N 59°20' E 018°05'0 0.0
2017-Jun-23 22:30N 59°20' E 018°05'0 0.0
2017-Jun-23 22:00N 59°20' E 018°05'0 0.0
2017-Jun-23 21:30N 59°20' E 018°05'0 0.0
2017-Jun-23 21:00N 59°20' E 018°05'0 0.0
2017-Jun-23 20:30N 59°20' E 018°05'0 0.0
2017-Jun-23 20:00N 59°20' E 018°05'0 0.0
2017-Jun-23 19:30N 59°20' E 018°05'0 0.0
2017-Jun-23 19:00N 59°20' E 018°05'0 0.0
2017-Jun-23 18:30N 59°20' E 018°05'0 0.0
2017-Jun-23 18:00N 59°20' E 018°05'3 5.5
2017-Jun-23 17:30N 59°19' E 018°10'3 6.6
2017-Jun-23 17:00N 59°22' E 018°15'4 8.3
2017-Jun-23 16:30N 59°24' E 018°21'3 5.6
2017-Jun-23 16:00N 59°26' E 018°26'4 7.7
2017-Jun-23 15:29N 59°24' E 018°34'4 8.6
2017-Jun-23 15:00N 59°23' E 018°41'9 9.0
2017-Jun-23 14:01N 59°17' E 018°55'0 0.1
2017-Jun-23 13:30N 59°17' E 018°55'0 0.0
2017-Jun-23 13:00N 59°17' E 018°55'0 0.0
2017-Jun-23 12:30N 59°17' E 018°55'3 6.8
2017-Jun-23 12:00N 59°19' E 018°49'5 9.6
2017-Jun-23 11:30N 59°22' E 018°43'3 5.6
2017-Jun-23 10:55N 59°24' E 018°37'4 9.7
2017-Jun-23 10:30N 59°25' E 018°30'4 8.5
2017-Jun-23 10:00N 59°25' E 018°21'3 5.1
2017-Jun-23 09:30N 59°23' E 018°19'4 8.2
2017-Jun-23 09:00N 59°20' E 018°13'4 8.2
2017-Jun-23 08:31N 59°20' E 018°05'0 0.1
2017-Jun-23 08:00N 59°20' E 018°05'0 0.2
2017-Jun-23 07:30N 59°20' E 018°05'0 0.0
2017-Jun-23 07:00N 59°20' E 018°05'0 0.0
2017-Jun-23 06:30N 59°20' E 018°05'0 0.0
2017-Jun-23 06:00N 59°20' E 018°05'0 0.0
2017-Jun-23 05:30N 59°20' E 018°05'0 0.0
2017-Jun-23 05:00N 59°20' E 018°05'0 0.0
2017-Jun-23 04:31N 59°20' E 018°05'0 0.0
2017-Jun-23 04:00N 59°20' E 018°05'0 0.0
2017-Jun-23 03:30N 59°20' E 018°05'0 0.0
2017-Jun-23 03:00N 59°20' E 018°05'0 0.0
2017-Jun-23 02:30N 59°20' E 018°05'0 0.0
2017-Jun-23 02:00N 59°20' E 018°05'0 0.0
2017-Jun-23 01:30N 59°20' E 018°05'0 0.0
2017-Jun-23 01:00N 59°20' E 018°05'0 0.0
2017-Jun-23 00:30N 59°20' E 018°05'0 0.0
2017-Jun-23 00:00N 59°20' E 018°05'0 0.0
2017-Jun-22 23:30N 59°20' E 018°05'0 0.0
2017-Jun-22 23:00N 59°20' E 018°05'0 0.0
2017-Jun-22 22:30N 59°20' E 018°05'0 0.0
2017-Jun-22 22:01N 59°20' E 018°05'0 0.0
2017-Jun-22 21:30N 59°20' E 018°05'0 0.0
2017-Jun-22 21:00N 59°20' E 018°05'0 0.0
2017-Jun-22 20:30N 59°20' E 018°05'0 0.2
2017-Jun-22 20:00N 59°20' E 018°05'2 3.5
2017-Jun-22 19:30N 59°19' E 018°08'4 8.7
2017-Jun-22 19:01N 59°22' E 018°15'4 8.3
2017-Jun-22 18:30N 59°24' E 018°21'2 3.6
2017-Jun-22 18:00N 59°23' E 018°25'2 3.9
2017-Jun-22 17:30N 59°24' E 018°21'3 6.0
2017-Jun-22 17:00N 59°22' E 018°17'3 5.7
2017-Jun-22 16:30N 59°20' E 018°12'4 7.9
2017-Jun-22 16:00N 59°20' E 018°05'0 0.0
2017-Jun-22 15:30N 59°20' E 018°05'3 5.9
2017-Jun-22 15:00N 59°20' E 018°10'3 6.3
2017-Jun-22 14:30N 59°22' E 018°15'6 6.5
2017-Jun-22 13:30N 59°26' E 018°25'2 0.6
2017-Jun-22 10:53N 59°25' E 018°28'3 7.4
2017-Jun-22 10:30N 59°26' E 018°23'3 6.1
2017-Jun-22 10:00N 59°23' E 018°20'5 9.6
2017-Jun-22 09:30N 59°20' E 018°13'4 8.3
2017-Jun-22 09:01N 59°20' E 018°05'0 0.0
2017-Jun-22 08:30N 59°20' E 018°05'0 0.0
2017-Jun-22 08:00N 59°20' E 018°05'0 0.0
2017-Jun-22 07:30N 59°20' E 018°05'0 0.0
2017-Jun-22 07:00N 59°20' E 018°05'0 0.0
2017-Jun-22 06:30N 59°20' E 018°05'0 0.0
2017-Jun-22 06:00N 59°20' E 018°05'0 0.0
2017-Jun-22 05:30N 59°20' E 018°05'0 0.0
2017-Jun-22 05:00N 59°20' E 018°05'0 0.0
2017-Jun-22 04:30N 59°20' E 018°05'0 0.0
2017-Jun-22 04:00N 59°20' E 018°05'0 0.0
2017-Jun-22 03:30N 59°20' E 018°05'0 0.0
2017-Jun-22 03:00N 59°20' E 018°05'0 0.0
2017-Jun-22 02:30N 59°20' E 018°05'0 0.0
2017-Jun-22 02:00N 59°20' E 018°05'0 0.0
2017-Jun-22 01:30N 59°20' E 018°05'0 0.0
2017-Jun-22 01:00N 59°20' E 018°05'0 0.0
2017-Jun-22 00:30N 59°20' E 018°05'0 0.0
2017-Jun-22 00:00N 59°20' E 018°05'0 0.0
2017-Jun-21 23:30N 59°20' E 018°05'0 0.0
2017-Jun-21 23:00N 59°20' E 018°05'0 0.0
2017-Jun-21 22:30N 59°20' E 018°05'0 0.0
2017-Jun-21 22:00N 59°20' E 018°05'0 0.0
2017-Jun-21 21:30N 59°20' E 018°05'0 0.0
2017-Jun-21 21:00N 59°20' E 018°05'0 0.0
2017-Jun-21 20:30N 59°20' E 018°05'0 0.0
2017-Jun-21 20:00N 59°20' E 018°05'0 0.0
2017-Jun-21 19:30N 59°20' E 018°05'0 0.0
2017-Jun-21 19:00N 59°20' E 018°05'0 0.0
2017-Jun-21 18:30N 59°20' E 018°05'0 0.0
2017-Jun-21 18:00N 59°20' E 018°05'0 0.0
2017-Jun-21 17:30N 59°20' E 018°05'0 0.0
2017-Jun-21 17:00N 59°20' E 018°05'0 0.0
2017-Jun-21 16:30N 59°20' E 018°05'0 0.0
2017-Jun-21 16:00N 59°20' E 018°05'0 0.0
2017-Jun-21 15:30N 59°20' E 018°05'0 0.0
2017-Jun-21 15:00N 59°20' E 018°05'0 0.0
2017-Jun-21 14:30N 59°20' E 018°05'0 0.0
2017-Jun-21 13:30N 59°20' E 018°05'0 0.0
2017-Jun-21 13:00N 59°20' E 018°05'0 0.0
2017-Jun-21 12:30N 59°20' E 018°05'0 0.0
2017-Jun-21 12:00N 59°20' E 018°05'0 0.0
2017-Jun-21 11:30N 59°20' E 018°05'0 0.0
2017-Jun-21 11:00N 59°20' E 018°05'0 0.0
2017-Jun-21 10:30N 59°20' E 018°05'3 5.2
2017-Jun-21 10:00N 59°19' E 018°10'1 2.1
2017-Jun-21 09:30N 59°20' E 018°11'3 6.9
2017-Jun-21 09:01N 59°20' E 018°05'0 0.0
2017-Jun-21 08:30N 59°20' E 018°05'0 0.0
2017-Jun-21 08:00N 59°20' E 018°05'0 0.0
2017-Jun-21 07:30N 59°20' E 018°05'0 0.0
2017-Jun-21 07:00N 59°20' E 018°05'0 0.0
2017-Jun-21 06:30N 59°20' E 018°05'0 0.0
2017-Jun-21 06:00N 59°20' E 018°05'0 0.0
2017-Jun-21 05:30N 59°20' E 018°05'0 0.0
2017-Jun-21 05:00N 59°20' E 018°05'0 0.0
2017-Jun-21 04:30N 59°20' E 018°05'0 0.0
2017-Jun-21 04:00N 59°20' E 018°05'0 0.0
2017-Jun-21 03:30N 59°20' E 018°05'0 0.0
2017-Jun-21 03:00N 59°20' E 018°05'0 0.0
2017-Jun-21 02:30N 59°20' E 018°05'0 0.0
2017-Jun-21 02:00N 59°20' E 018°05'0 0.0
2017-Jun-21 01:30N 59°20' E 018°05'0 0.0
2017-Jun-21 01:00N 59°20' E 018°05'0 0.0
2017-Jun-21 00:30N 59°20' E 018°05'0 0.0
2017-Jun-21 00:00N 59°20' E 018°05'0 0.0
2017-Jun-20 23:30N 59°20' E 018°05'0 0.0
2017-Jun-20 23:00N 59°20' E 018°05'0 0.0
2017-Jun-20 22:30N 59°20' E 018°05'0 0.0
2017-Jun-20 22:00N 59°20' E 018°05'0 0.0
2017-Jun-20 21:30N 59°20' E 018°05'0 0.0
2017-Jun-20 21:00N 59°20' E 018°05'0 0.0
2017-Jun-20 20:30N 59°20' E 018°05'0 0.0
2017-Jun-20 20:00N 59°20' E 018°05'3 5.5
2017-Jun-20 19:30N 59°19' E 018°10'3 6.6
2017-Jun-20 19:00N 59°22' E 018°15'4 8.3
2017-Jun-20 18:30N 59°24' E 018°21'1 2.9
2017-Jun-20 18:00N 59°23' E 018°24'1 2.6
2017-Jun-20 17:30N 59°24' E 018°22'3 6.0
2017-Jun-20 17:00N 59°22' E 018°17'3 6.2
2017-Jun-20 16:30N 59°20' E 018°12'4 8.0
2017-Jun-20 16:00N 59°20' E 018°05'0 0.0
2017-Jun-20 15:30N 59°20' E 018°05'3 5.6
2017-Jun-20 15:00N 59°19' E 018°10'3 6.6
2017-Jun-20 14:30N 59°22' E 018°15'6 6.2
2017-Jun-20 13:30N 59°26' E 018°24'2 0.6
2017-Jun-20 10:47N 59°25' E 018°28'2 8.3
2017-Jun-20 10:30N 59°26' E 018°23'3 6.0
2017-Jun-20 09:59N 59°23' E 018°20'5 9.6
2017-Jun-20 09:30N 59°20' E 018°13'4 8.5
2017-Jun-20 09:00N 59°20' E 018°05'0 0.0
2017-Jun-20 08:30N 59°20' E 018°05'0 0.0
2017-Jun-20 08:00N 59°20' E 018°05'0 0.0
2017-Jun-20 07:30N 59°20' E 018°05'0 0.0
2017-Jun-20 07:00N 59°20' E 018°05'0 0.0
2017-Jun-20 06:30N 59°20' E 018°05'0 0.0
2017-Jun-20 06:00N 59°20' E 018°05'0 0.0
2017-Jun-20 05:30N 59°20' E 018°05'0 0.0
2017-Jun-20 05:00N 59°20' E 018°05'0 0.0
2017-Jun-20 04:30N 59°20' E 018°05'0 0.0
2017-Jun-20 04:00N 59°20' E 018°05'0 0.0
2017-Jun-20 03:30N 59°20' E 018°05'0 0.0
2017-Jun-20 03:00N 59°20' E 018°05'0 0.0
2017-Jun-20 02:30N 59°20' E 018°05'0 0.0
2017-Jun-20 02:00N 59°20' E 018°05'0 0.0
2017-Jun-20 01:30N 59°20' E 018°05'0 0.0
2017-Jun-20 01:00N 59°20' E 018°05'0 0.0
2017-Jun-20 00:30N 59°20' E 018°05'0 0.0
2017-Jun-20 00:00N 59°20' E 018°05'0 0.0
2017-Jun-19 23:30N 59°20' E 018°05'0 0.0
2017-Jun-19 23:00N 59°20' E 018°05'0 0.0
2017-Jun-19 22:30N 59°20' E 018°05'0 0.0
2017-Jun-19 22:00N 59°20' E 018°05'0 0.0
2017-Jun-19 21:30N 59°20' E 018°05'0 0.0
2017-Jun-19 21:00N 59°20' E 018°05'0 0.0
2017-Jun-19 20:30N 59°20' E 018°05'0 0.0
2017-Jun-19 20:00N 59°20' E 018°05'3 5.0
2017-Jun-19 19:30N 59°19' E 018°10'4 7.5
2017-Jun-19 19:00N 59°22' E 018°15'4 8.0
2017-Jun-19 18:30N 59°24' E 018°21'1 2.9
2017-Jun-19 18:00N 59°23' E 018°24'1 2.9
2017-Jun-19 17:30N 59°24' E 018°21'3 5.7
2017-Jun-19 17:00N 59°22' E 018°18'3 6.2
2017-Jun-19 16:30N 59°20' E 018°13'4 8.3
2017-Jun-19 16:01N 59°20' E 018°05'0 0.1
2017-Jun-19 15:30N 59°20' E 018°05'2 3.4
2017-Jun-19 15:00N 59°19' E 018°08'4 8.6
2017-Jun-19 14:30N 59°22' E 018°15'6 6.2
2017-Jun-19 13:30N 59°26' E 018°24'2 0.7
2017-Jun-19 10:47N 59°25' E 018°28'2 8.1
2017-Jun-19 10:30N 59°26' E 018°23'3 5.9
2017-Jun-19 10:00N 59°23' E 018°20'5 9.5
2017-Jun-19 09:30N 59°20' E 018°13'4 8.5
2017-Jun-19 09:01N 59°20' E 018°05'0 0.1
2017-Jun-19 08:30N 59°20' E 018°05'0 0.0
2017-Jun-19 08:00N 59°20' E 018°05'0 0.0
2017-Jun-19 07:30N 59°20' E 018°05'0 0.0
2017-Jun-19 07:00N 59°20' E 018°05'0 0.0
2017-Jun-19 06:30N 59°20' E 018°05'0 0.0
2017-Jun-19 06:00N 59°20' E 018°05'0 0.0
2017-Jun-19 05:30N 59°20' E 018°05'0 0.0
2017-Jun-19 05:00N 59°20' E 018°05'0 0.0
2017-Jun-19 04:30N 59°20' E 018°05'0 0.0
2017-Jun-19 04:00N 59°20' E 018°05'0 0.0
2017-Jun-19 03:30N 59°20' E 018°05'0 0.0
2017-Jun-19 03:00N 59°20' E 018°05'0 0.0
2017-Jun-19 02:30N 59°20' E 018°05'0 0.0
2017-Jun-19 02:00N 59°20' E 018°05'0 0.0
2017-Jun-19 01:30N 59°20' E 018°05'0 0.0
2017-Jun-19 01:00N 59°20' E 018°05'0 0.0
2017-Jun-19 00:30N 59°20' E 018°05'0 0.0
2017-Jun-19 00:00N 59°20' E 018°05'0 0.0
2017-Jun-18 23:30N 59°20' E 018°05'0 0.0
2017-Jun-18 23:00N 59°20' E 018°05'0 0.0
2017-Jun-18 22:30N 59°20' E 018°05'0 0.0
2017-Jun-18 22:00N 59°20' E 018°05'0 0.0
2017-Jun-18 21:30N 59°20' E 018°05'0 0.0
2017-Jun-18 21:00N 59°20' E 018°05'0 0.0
2017-Jun-18 20:30N 59°20' E 018°05'0 0.0
2017-Jun-18 20:00N 59°20' E 018°05'0 0.0
2017-Jun-18 19:30N 59°20' E 018°05'0 0.0
2017-Jun-18 19:00N 59°20' E 018°05'0 0.0
2017-Jun-18 18:30N 59°20' E 018°05'0 0.0
2017-Jun-18 18:00N 59°20' E 018°05'0 0.0
2017-Jun-18 17:30N 59°20' E 018°05'0 0.0
2017-Jun-18 17:00N 59°20' E 018°05'0 0.0
2017-Jun-18 16:31N 59°20' E 018°05'4 7.8
2017-Jun-18 16:00N 59°20' E 018°12'3 6.2
2017-Jun-18 15:30N 59°22' E 018°17'3 5.8
2017-Jun-18 14:59N 59°24' E 018°21'4 2.2
2017-Jun-18 13:13N 59°25' E 018°29'2 6.0
2017-Jun-18 12:56N 59°26' E 018°25'2 5.7
2017-Jun-18 12:30N 59°24' E 018°21'3 5.2
2017-Jun-18 12:00N 59°22' E 018°19'4 8.2
2017-Jun-18 11:30N 59°20' E 018°12'4 7.3
2017-Jun-18 11:00N 59°20' E 018°05'0 0.0
2017-Jun-18 10:30N 59°20' E 018°05'0 0.0
2017-Jun-18 10:00N 59°20' E 018°05'0 0.0
2017-Jun-18 09:30N 59°20' E 018°05'0 0.0
2017-Jun-18 09:00N 59°20' E 018°05'0 0.0
2017-Jun-18 08:30N 59°20' E 018°05'0 0.0
2017-Jun-18 08:00N 59°20' E 018°05'0 0.0
2017-Jun-18 07:30N 59°20' E 018°05'0 0.0
2017-Jun-18 07:00N 59°20' E 018°05'0 0.0
2017-Jun-18 06:30N 59°20' E 018°05'0 0.0
2017-Jun-18 06:00N 59°20' E 018°05'0 0.0
2017-Jun-18 05:30N 59°20' E 018°05'0 0.0
2017-Jun-18 05:00N 59°20' E 018°05'0 0.0
2017-Jun-18 04:30N 59°20' E 018°05'0 0.0
2017-Jun-18 04:00N 59°20' E 018°05'0 0.0
2017-Jun-18 03:30N 59°20' E 018°05'0 0.0
2017-Jun-18 03:00N 59°20' E 018°05'0 0.0
2017-Jun-18 02:30N 59°20' E 018°05'0 0.0
2017-Jun-18 02:00N 59°20' E 018°05'0 0.0
2017-Jun-18 01:30N 59°20' E 018°05'0 0.0
2017-Jun-18 01:00N 59°20' E 018°05'0 0.0
2017-Jun-18 00:30N 59°20' E 018°05'0 0.0
2017-Jun-18 00:00N 59°20' E 018°05'0 0.0
2017-Jun-17 23:30N 59°20' E 018°05'0 0.0
2017-Jun-17 23:00N 59°20' E 018°05'0 0.0
2017-Jun-17 22:30N 59°20' E 018°05'0 0.0
2017-Jun-17 22:00N 59°20' E 018°05'0 0.0
2017-Jun-17 21:30N 59°20' E 018°05'0 0.0
2017-Jun-17 21:00N 59°20' E 018°05'0 0.0
2017-Jun-17 20:30N 59°20' E 018°05'0 0.0
2017-Jun-17 20:00N 59°20' E 018°05'0 0.0
2017-Jun-17 19:30N 59°20' E 018°05'0 0.0
2017-Jun-17 19:00N 59°20' E 018°05'0 0.0
2017-Jun-17 18:30N 59°20' E 018°05'0 0.0
2017-Jun-17 18:00N 59°20' E 018°05'0 0.0
2017-Jun-17 17:30N 59°20' E 018°05'0 0.0
2017-Jun-17 17:00N 59°20' E 018°05'0 0.0
2017-Jun-17 16:30N 59°20' E 018°05'0 0.0
2017-Jun-17 16:00N 59°20' E 018°05'0 0.0
2017-Jun-17 15:30N 59°20' E 018°05'1 1.9
2017-Jun-17 15:00N 59°19' E 018°06'8 8.1
2017-Jun-17 14:00N 59°23' E 018°20'1 2.5
2017-Jun-17 13:30N 59°24' E 018°22'2 2.2
2017-Jun-17 12:47N 59°23' E 018°25'1 5.1
2017-Jun-17 12:30N 59°24' E 018°22'1 2.8
2017-Jun-17 12:00N 59°23' E 018°20'5 9.5
2017-Jun-17 11:30N 59°20' E 018°13'4 8.1
2017-Jun-17 11:01N 59°20' E 018°05'0 0.1
2017-Jun-17 10:30N 59°20' E 018°05'0 0.0
2017-Jun-17 10:00N 59°20' E 018°05'0 0.0
2017-Jun-17 09:30N 59°20' E 018°05'0 0.0
2017-Jun-17 09:00N 59°20' E 018°05'0 0.0
2017-Jun-17 08:30N 59°20' E 018°05'0 0.0
2017-Jun-17 08:00N 59°20' E 018°05'0 0.0
2017-Jun-17 07:30N 59°20' E 018°05'0 0.0
2017-Jun-17 07:00N 59°20' E 018°05'0 0.0
2017-Jun-17 06:30N 59°20' E 018°05'0 0.0
2017-Jun-17 06:00N 59°20' E 018°05'0 0.0
2017-Jun-17 05:30N 59°20' E 018°05'0 0.0
2017-Jun-17 05:00N 59°20' E 018°05'0 0.0
2017-Jun-17 04:30N 59°20' E 018°05'0 0.0
2017-Jun-17 04:01N 59°20' E 018°05'0 0.0
2017-Jun-17 03:30N 59°20' E 018°05'0 0.0
2017-Jun-17 03:00N 59°20' E 018°05'0 0.0
2017-Jun-17 02:30N 59°20' E 018°05'0 0.0
2017-Jun-17 02:01N 59°20' E 018°05'0 0.0
2017-Jun-17 01:31N 59°20' E 018°05'  
Track history (hours):
 
Tides and Currents Weather Stations Pressure Air Temp Water Temp Dewpoint Dewpoint Depression Visibility Wind Speed Wind Dir Waves Ship Positions

Norrskar

Last reported at 2017-Jun-27 01:30 UTC. Time now 2017-Jun-27 01:50 UTC.
Position N 59°20' E 018°05'.

Length 35 m.

Type: Ship. MMSI: 265522430.

Date/timePositionNaut miles runAvg speedWind from/ knotsBaromVisibWave heightAir tempDewpointWater temp
2017-Jun-27 01:30N 59°20' E 018°05'0 0.0
2017-Jun-27 01:00N 59°20' E 018°05'0 0.0
2017-Jun-27 00:30N 59°20' E 018°05'0 0.0
2017-Jun-27 00:00N 59°20' E 018°05'0 0.0
2017-Jun-26 23:30N 59°20' E 018°05'0 0.0
2017-Jun-26 23:00N 59°20' E 018°05'0 0.0
2017-Jun-26 22:30N 59°20' E 018°05'0 0.0
2017-Jun-26 22:00N 59°20' E 018°05'0 0.0
2017-Jun-26 21:30N 59°20' E 018°05'0 0.0
2017-Jun-26 21:00N 59°20' E 018°05'0 0.0
2017-Jun-26 20:30N 59°20' E 018°05'0 0.0
2017-Jun-26 20:00N 59°20' E 018°05'2 4.5
2017-Jun-26 19:31N 59°19' E 018°09'4 7.8
2017-Jun-26 19:00N 59°22' E 018°15'4 8.0
2017-Jun-26 18:30N 59°24' E 018°21'1 2.3
2017-Jun-26 17:51N 59°23' E 018°24'1 4.4
2017-Jun-26 17:30N 59°24' E 018°21'3 5.2
2017-Jun-26 17:01N 59°23' E 018°17'3 6.6
2017-Jun-26 16:30N 59°20' E 018°13'4 8.2
2017-Jun-26 16:01N 59°20' E 018°05'0 0.1
2017-Jun-26 15:31N 59°20' E 018°05'4 7.0
2017-Jun-26 15:01N 59°20' E 018°12'3 5.6
2017-Jun-26 14:31N 59°22' E 018°16'6 6.3
2017-Jun-26 13:30N 59°26' E 018°25'2 0.6
2017-Jun-26 10:50N 59°25' E 018°29'3 8.4
2017-Jun-26 10:30N 59°26' E 018°23'3 6.2
2017-Jun-26 10:01N 59°23' E 018°20'5 9.8
2017-Jun-26 09:30N 59°20' E 018°12'4 8.0
2017-Jun-26 09:01N 59°20' E 018°05'0 0.0
2017-Jun-26 08:31N 59°20' E 018°05'0 0.0
2017-Jun-26 08:01N 59°20' E 018°05'0 0.0
2017-Jun-26 07:30N 59°20' E 018°05'0 0.0
2017-Jun-26 07:01N 59°20' E 018°05'0 0.0
2017-Jun-26 06:31N 59°20' E 018°05'0 0.0
2017-Jun-26 06:01N 59°20' E 018°05'0 0.0
2017-Jun-26 05:31N 59°20' E 018°05'0 0.0
2017-Jun-26 05:01N 59°20' E 018°05'0 0.0
2017-Jun-26 04:31N 59°20' E 018°05'0 0.0
2017-Jun-26 04:01N 59°20' E 018°05'0 0.0
2017-Jun-26 03:31N 59°20' E 018°05'0 0.0
2017-Jun-26 03:01N 59°20' E 018°05'0 0.0
2017-Jun-26 02:31N 59°20' E 018°05'0 0.0
2017-Jun-26 02:01N 59°20' E 018°05'0 0.0
2017-Jun-26 01:31N 59°20' E 018°05'0 0.0
2017-Jun-26 01:01N 59°20' E 018°05'0 0.0
2017-Jun-26 00:31N 59°20' E 018°05'0 0.0
2017-Jun-26 00:01N 59°20' E 018°05'0 0.0
2017-Jun-25 23:30N 59°20' E 018°05'0 0.0
2017-Jun-25 23:01N 59°20' E 018°05'0 0.0
2017-Jun-25 22:31N 59°20' E 018°05'0 0.0
2017-Jun-25 22:01N 59°20' E 018°05'0 0.0
2017-Jun-25 21:31N 59°20' E 018°05'0 0.0
2017-Jun-25 21:01N 59°20' E 018°05'0 0.0
2017-Jun-25 20:31N 59°20' E 018°05'0 0.0
2017-Jun-25 20:01N 59°20' E 018°05'0 0.0
2017-Jun-25 19:31N 59°20' E 018°05'0 0.0
2017-Jun-25 19:01N 59°20' E 018°05'0 0.0
2017-Jun-25 18:30N 59°20' E 018°05'0 0.0
2017-Jun-25 18:00N 59°20' E 018°05'2 4.4
2017-Jun-25 17:30N 59°19' E 018°09'4 7.0
2017-Jun-25 17:00N 59°21' E 018°14'4 8.2
2017-Jun-25 16:30N 59°24' E 018°21'3 6.1
2017-Jun-25 15:59N 59°25' E 018°26'7 8.7
2017-Jun-25 15:12N 59°22' E 018°38'2 9.4
2017-Jun-25 14:59N 59°22' E 018°42'8 5.6
2017-Jun-25 13:29N 59°17' E 018°55'5 2.7
2017-Jun-25 11:33N 59°20' E 018°46'1 9.8
2017-Jun-25 11:29N 59°21' E 018°46'10 8.2
2017-Jun-25 10:15N 59°25' E 018°28'310.3
2017-Jun-25 10:00N 59°26' E 018°23'3 6.8
2017-Jun-25 09:30N 59°23' E 018°20'4 8.6
2017-Jun-25 09:01N 59°20' E 018°13'4 8.4
2017-Jun-25 08:30N 59°20' E 018°05'0 0.0
2017-Jun-25 08:01N 59°20' E 018°05'0 0.0
2017-Jun-25 07:31N 59°20' E 018°05'0 0.0
2017-Jun-25 07:01N 59°20' E 018°05'0 0.0
2017-Jun-25 06:30N 59°20' E 018°05'0 0.0
2017-Jun-25 06:01N 59°20' E 018°05'0 0.0
2017-Jun-25 05:30N 59°20' E 018°05'0 0.0
2017-Jun-25 05:01N 59°20' E 018°05'0 0.0
2017-Jun-25 04:31N 59°20' E 018°05'0 0.0
2017-Jun-25 04:00N 59°20' E 018°05'0 0.0
2017-Jun-25 03:31N 59°20' E 018°05'0 0.0
2017-Jun-25 03:01N 59°20' E 018°05'0 0.0
2017-Jun-25 02:31N 59°20' E 018°05'0 0.0
2017-Jun-25 02:01N 59°20' E 018°05'0 0.0
2017-Jun-25 01:31N 59°20' E 018°05'0 0.0
2017-Jun-25 01:00N 59°20' E 018°05'0 0.0
2017-Jun-25 00:31N 59°20' E 018°05'0 0.0
2017-Jun-25 00:00N 59°20' E 018°05'0 0.0
2017-Jun-24 23:31N 59°20' E 018°05'0 0.0
2017-Jun-24 23:01N 59°20' E 018°05'0 0.0
2017-Jun-24 22:30N 59°20' E 018°05'0 0.0
2017-Jun-24 22:00N 59°20' E 018°05'0 0.0
2017-Jun-24 21:31N 59°20' E 018°05'0 0.0
2017-Jun-24 21:01N 59°20' E 018°05'0 0.0
2017-Jun-24 20:30N 59°20' E 018°05'0 0.0
2017-Jun-24 20:00N 59°20' E 018°05'0 0.0
2017-Jun-24 19:31N 59°20' E 018°05'0 0.0
2017-Jun-24 19:00N 59°20' E 018°05'0 0.0
2017-Jun-24 18:31N 59°20' E 018°05'0 0.0
2017-Jun-24 18:01N 59°20' E 018°05'2 4.4
2017-Jun-24 17:30N 59°19' E 018°09'4 7.0
2017-Jun-24 17:00N 59°21' E 018°14'4 8.6
2017-Jun-24 16:30N 59°24' E 018°21'3 6.1
2017-Jun-24 15:59N 59°25' E 018°27'1 0.1
2017-Jun-24 10:12N 59°25' E 018°28'210.2
2017-Jun-24 10:00N 59°26' E 018°24'3 6.0
2017-Jun-24 09:30N 59°23' E 018°20'5 9.7
2017-Jun-24 09:00N 59°20' E 018°13'4 8.5
2017-Jun-24 08:30N 59°20' E 018°05'0 0.1
2017-Jun-24 08:00N 59°20' E 018°05'0 0.0
2017-Jun-24 07:30N 59°20' E 018°05'0 0.0
2017-Jun-24 07:00N 59°20' E 018°05'0 0.0
2017-Jun-24 06:30N 59°20' E 018°05'0 0.0
2017-Jun-24 06:00N 59°20' E 018°05'0 0.0
2017-Jun-24 05:30N 59°20' E 018°05'0 0.0
2017-Jun-24 05:00N 59°20' E 018°05'0 0.0
2017-Jun-24 04:30N 59°20' E 018°05'0 0.0
2017-Jun-24 04:00N 59°20' E 018°05'0 0.0
2017-Jun-24 03:30N 59°20' E 018°05'0 0.0
2017-Jun-24 03:00N 59°20' E 018°05'0 0.0
2017-Jun-24 02:30N 59°20' E 018°05'0 0.0
2017-Jun-24 02:00N 59°20' E 018°05'0 0.0
2017-Jun-24 01:30N 59°20' E 018°05'0 0.0
2017-Jun-24 01:00N 59°20' E 018°05'0 0.0
2017-Jun-24 00:30N 59°20' E 018°05'0 0.0
2017-Jun-24 00:00N 59°20' E 018°05'0 0.0
2017-Jun-23 23:29N 59°20' E 018°05'0 0.0
2017-Jun-23 23:00N 59°20' E 018°05'0 0.0
2017-Jun-23 22:30N 59°20' E 018°05'0 0.0
2017-Jun-23 22:00N 59°20' E 018°05'0 0.0
2017-Jun-23 21:30N 59°20' E 018°05'0 0.0
2017-Jun-23 21:00N 59°20' E 018°05'0 0.0
2017-Jun-23 20:30N 59°20' E 018°05'0 0.0
2017-Jun-23 20:00N 59°20' E 018°05'0 0.0
2017-Jun-23 19:30N 59°20' E 018°05'0 0.0
2017-Jun-23 19:00N 59°20' E 018°05'0 0.0
2017-Jun-23 18:30N 59°20' E 018°05'0 0.0
2017-Jun-23 18:00N 59°20' E 018°05'3 5.5
2017-Jun-23 17:30N 59°19' E 018°10'3 6.6
2017-Jun-23 17:00N 59°22' E 018°15'4 8.3
2017-Jun-23 16:30N 59°24' E 018°21'3 5.6
2017-Jun-23 16:00N 59°26' E 018°26'4 7.7
2017-Jun-23 15:29N 59°24' E 018°34'4 8.6
2017-Jun-23 15:00N 59°23' E 018°41'9 9.0
2017-Jun-23 14:01N 59°17' E 018°55'0 0.1
2017-Jun-23 13:30N 59°17' E 018°55'0 0.0
2017-Jun-23 13:00N 59°17' E 018°55'0 0.0
2017-Jun-23 12:30N 59°17' E 018°55'3 6.8
2017-Jun-23 12:00N 59°19' E 018°49'5 9.6
2017-Jun-23 11:30N 59°22' E 018°43'3 5.6
2017-Jun-23 10:55N 59°24' E 018°37'4 9.7
2017-Jun-23 10:30N 59°25' E 018°30'4 8.5
2017-Jun-23 10:00N 59°25' E 018°21'3 5.1
2017-Jun-23 09:30N 59°23' E 018°19'4 8.2
2017-Jun-23 09:00N 59°20' E 018°13'4 8.2
2017-Jun-23 08:31N 59°20' E 018°05'0 0.1
2017-Jun-23 08:00N 59°20' E 018°05'0 0.2
2017-Jun-23 07:30N 59°20' E 018°05'0 0.0
2017-Jun-23 07:00N 59°20' E 018°05'0 0.0
2017-Jun-23 06:30N 59°20' E 018°05'0 0.0
2017-Jun-23 06:00N 59°20' E 018°05'0 0.0
2017-Jun-23 05:30N 59°20' E 018°05'0 0.0
2017-Jun-23 05:00N 59°20' E 018°05'0 0.0
2017-Jun-23 04:31N 59°20' E 018°05'0 0.0
2017-Jun-23 04:00N 59°20' E 018°05'0 0.0
2017-Jun-23 03:30N 59°20' E 018°05'0 0.0
2017-Jun-23 03:00N 59°20' E 018°05'0 0.0
2017-Jun-23 02:30N 59°20' E 018°05'0 0.0
2017-Jun-23 02:00N 59°20' E 018°05'0 0.0
2017-Jun-23 01:30N 59°20' E 018°05'0 0.0
2017-Jun-23 01:00N 59°20' E 018°05'0 0.0
2017-Jun-23 00:30N 59°20' E 018°05'0 0.0
2017-Jun-23 00:00N 59°20' E 018°05'0 0.0
2017-Jun-22 23:30N 59°20' E 018°05'0 0.0
2017-Jun-22 23:00N 59°20' E 018°05'0 0.0
2017-Jun-22 22:30N 59°20' E 018°05'0 0.0
2017-Jun-22 22:01N 59°20' E 018°05'0 0.0
2017-Jun-22 21:30N 59°20' E 018°05'0 0.0
2017-Jun-22 21:00N 59°20' E 018°05'0 0.0
2017-Jun-22 20:30N 59°20' E 018°05'0 0.2
2017-Jun-22 20:00N 59°20' E 018°05'2 3.5
2017-Jun-22 19:30N 59°19' E 018°08'4 8.7
2017-Jun-22 19:01N 59°22' E 018°15'4 8.3
2017-Jun-22 18:30N 59°24' E 018°21'2 3.6
2017-Jun-22 18:00N 59°23' E 018°25'2 3.9
2017-Jun-22 17:30N 59°24' E 018°21'3 6.0
2017-Jun-22 17:00N 59°22' E 018°17'3 5.7
2017-Jun-22 16:30N 59°20' E 018°12'4 7.9
2017-Jun-22 16:00N 59°20' E 018°05'0 0.0
2017-Jun-22 15:30N 59°20' E 018°05'3 5.9
2017-Jun-22 15:00N 59°20' E 018°10'3 6.3
2017-Jun-22 14:30N 59°22' E 018°15'6 6.5
2017-Jun-22 13:30N 59°26' E 018°25'2 0.6
2017-Jun-22 10:53N 59°25' E 018°28'3 7.4
2017-Jun-22 10:30N 59°26' E 018°23'3 6.1
2017-Jun-22 10:00N 59°23' E 018°20'5 9.6
2017-Jun-22 09:30N 59°20' E 018°13'4 8.3
2017-Jun-22 09:01N 59°20' E 018°05'0 0.0
2017-Jun-22 08:30N 59°20' E 018°05'0 0.0
2017-Jun-22 08:00N 59°20' E 018°05'0 0.0
2017-Jun-22 07:30N 59°20' E 018°05'0 0.0
2017-Jun-22 07:00N 59°20' E 018°05'0 0.0
2017-Jun-22 06:30N 59°20' E 018°05'0 0.0
2017-Jun-22 06:00N 59°20' E 018°05'0 0.0
2017-Jun-22 05:30N 59°20' E 018°05'0 0.0
2017-Jun-22 05:00N 59°20' E 018°05'0 0.0
2017-Jun-22 04:30N 59°20' E 018°05'0 0.0
2017-Jun-22 04:00N 59°20' E 018°05'0 0.0
2017-Jun-22 03:30N 59°20' E 018°05'0 0.0
2017-Jun-22 03:00N 59°20' E 018°05'0 0.0
2017-Jun-22 02:30N 59°20' E 018°05'0 0.0
2017-Jun-22 02:00N 59°20' E 018°05'0 0.0
2017-Jun-22 01:30N 59°20' E 018°05'0 0.0
2017-Jun-22 01:00N 59°20' E 018°05'0 0.0
2017-Jun-22 00:30N 59°20' E 018°05'0 0.0
2017-Jun-22 00:00N 59°20' E 018°05'0 0.0
2017-Jun-21 23:30N 59°20' E 018°05'0 0.0
2017-Jun-21 23:00N 59°20' E 018°05'0 0.0
2017-Jun-21 22:30N 59°20' E 018°05'0 0.0
2017-Jun-21 22:00N 59°20' E 018°05'0 0.0
2017-Jun-21 21:30N 59°20' E 018°05'0 0.0
2017-Jun-21 21:00N 59°20' E 018°05'0 0.0
2017-Jun-21 20:30N 59°20' E 018°05'0 0.0
2017-Jun-21 20:00N 59°20' E 018°05'0 0.0
2017-Jun-21 19:30N 59°20' E 018°05'0 0.0
2017-Jun-21 19:00N 59°20' E 018°05'0 0.0
2017-Jun-21 18:30N 59°20' E 018°05'0 0.0
2017-Jun-21 18:00N 59°20' E 018°05'0 0.0
2017-Jun-21 17:30N 59°20' E 018°05'0 0.0
2017-Jun-21 17:00N 59°20' E 018°05'0 0.0
2017-Jun-21 16:30N 59°20' E 018°05'0 0.0
2017-Jun-21 16:00N 59°20' E 018°05'0 0.0
2017-Jun-21 15:30N 59°20' E 018°05'0 0.0
2017-Jun-21 15:00N 59°20' E 018°05'0 0.0
2017-Jun-21 14:30N 59°20' E 018°05'0 0.0
2017-Jun-21 13:30N 59°20' E 018°05'0 0.0
2017-Jun-21 13:00N 59°20' E 018°05'0 0.0
2017-Jun-21 12:30N 59°20' E 018°05'0 0.0
2017-Jun-21 12:00N 59°20' E 018°05'0 0.0
2017-Jun-21 11:30N 59°20' E 018°05'0 0.0
2017-Jun-21 11:00N 59°20' E 018°05'0 0.0
2017-Jun-21 10:30N 59°20' E 018°05'3 5.2
2017-Jun-21 10:00N 59°19' E 018°10'1 2.1
2017-Jun-21 09:30N 59°20' E 018°11'3 6.9
2017-Jun-21 09:01N 59°20' E 018°05'0 0.0
2017-Jun-21 08:30N 59°20' E 018°05'0 0.0
2017-Jun-21 08:00N 59°20' E 018°05'0 0.0
2017-Jun-21 07:30N 59°20' E 018°05'0 0.0
2017-Jun-21 07:00N 59°20' E 018°05'0 0.0
2017-Jun-21 06:30N 59°20' E 018°05'0 0.0
2017-Jun-21 06:00N 59°20' E 018°05'0 0.0
2017-Jun-21 05:30N 59°20' E 018°05'0 0.0
2017-Jun-21 05:00N 59°20' E 018°05'0 0.0
2017-Jun-21 04:30N 59°20' E 018°05'0 0.0
2017-Jun-21 04:00N 59°20' E 018°05'0 0.0
2017-Jun-21 03:30N 59°20' E 018°05'0 0.0
2017-Jun-21 03:00N 59°20' E 018°05'0 0.0
2017-Jun-21 02:30N 59°20' E 018°05'0 0.0
2017-Jun-21 02:00N 59°20' E 018°05'0 0.0
2017-Jun-21 01:30N 59°20' E 018°05'0 0.0
2017-Jun-21 01:00N 59°20' E 018°05'0 0.0
2017-Jun-21 00:30N 59°20' E 018°05'0 0.0
2017-Jun-21 00:00N 59°20' E 018°05'0 0.0
2017-Jun-20 23:30N 59°20' E 018°05'0 0.0
2017-Jun-20 23:00N 59°20' E 018°05'0 0.0
2017-Jun-20 22:30N 59°20' E 018°05'0 0.0
2017-Jun-20 22:00N 59°20' E 018°05'0 0.0
2017-Jun-20 21:30N 59°20' E 018°05'0 0.0
2017-Jun-20 21:00N 59°20' E 018°05'0 0.0
2017-Jun-20 20:30N 59°20' E 018°05'0 0.0
2017-Jun-20 20:00N 59°20' E 018°05'3 5.5
2017-Jun-20 19:30N 59°19' E 018°10'3 6.6
2017-Jun-20 19:00N 59°22' E 018°15'4 8.3
2017-Jun-20 18:30N 59°24' E 018°21'1 2.9
2017-Jun-20 18:00N 59°23' E 018°24'1 2.6
2017-Jun-20 17:30N 59°24' E 018°22'3 6.0
2017-Jun-20 17:00N 59°22' E 018°17'3 6.2
2017-Jun-20 16:30N 59°20' E 018°12'4 8.0
2017-Jun-20 16:00N 59°20' E 018°05'0 0.0
2017-Jun-20 15:30N 59°20' E 018°05'3 5.6
2017-Jun-20 15:00N 59°19' E 018°10'3 6.6
2017-Jun-20 14:30N 59°22' E 018°15'6 6.2
2017-Jun-20 13:30N 59°26' E 018°24'2 0.6
2017-Jun-20 10:47N 59°25' E 018°28'2 8.3
2017-Jun-20 10:30N 59°26' E 018°23'3 6.0
2017-Jun-20 09:59N 59°23' E 018°20'5 9.6
2017-Jun-20 09:30N 59°20' E 018°13'4 8.5
2017-Jun-20 09:00N 59°20' E 018°05'0 0.0
2017-Jun-20 08:30N 59°20' E 018°05'0 0.0
2017-Jun-20 08:00N 59°20' E 018°05'0 0.0
2017-Jun-20 07:30N 59°20' E 018°05'0 0.0
2017-Jun-20 07:00N 59°20' E 018°05'0 0.0
2017-Jun-20 06:30N 59°20' E 018°05'0 0.0
2017-Jun-20 06:00N 59°20' E 018°05'0 0.0
2017-Jun-20 05:30N 59°20' E 018°05'0 0.0
2017-Jun-20 05:00N 59°20' E 018°05'0 0.0
2017-Jun-20 04:30N 59°20' E 018°05'0 0.0
2017-Jun-20 04:00N 59°20' E 018°05'0 0.0
2017-Jun-20 03:30N 59°20' E 018°05'0 0.0
2017-Jun-20 03:00N 59°20' E 018°05'0 0.0
2017-Jun-20 02:30N 59°20' E 018°05'0 0.0
2017-Jun-20 02:00N 59°20' E 018°05'0 0.0
2017-Jun-20 01:30N 59°20' E 018°05'0 0.0
2017-Jun-20 01:00N 59°20' E 018°05'0 0.0
2017-Jun-20 00:30N 59°20' E 018°05'0 0.0
2017-Jun-20 00:00N 59°20' E 018°05'0 0.0
2017-Jun-19 23:30N 59°20' E 018°05'0 0.0
2017-Jun-19 23:00N 59°20' E 018°05'0 0.0
2017-Jun-19 22:30N 59°20' E 018°05'0 0.0
2017-Jun-19 22:00N 59°20' E 018°05'0 0.0
2017-Jun-19 21:30N 59°20' E 018°05'0 0.0
2017-Jun-19 21:00N 59°20' E 018°05'0 0.0
2017-Jun-19 20:30N 59°20' E 018°05'0 0.0
2017-Jun-19 20:00N 59°20' E 018°05'3 5.0
2017-Jun-19 19:30N 59°19' E 018°10'4 7.5
2017-Jun-19 19:00N 59°22' E 018°15'4 8.0
2017-Jun-19 18:30N 59°24' E 018°21'1 2.9
2017-Jun-19 18:00N 59°23' E 018°24'1 2.9
2017-Jun-19 17:30N 59°24' E 018°21'3 5.7
2017-Jun-19 17:00N 59°22' E 018°18'3 6.2
2017-Jun-19 16:30N 59°20' E 018°13'4 8.3
2017-Jun-19 16:01N 59°20' E 018°05'0 0.1
2017-Jun-19 15:30N 59°20' E 018°05'2 3.4
2017-Jun-19 15:00N 59°19' E 018°08'4 8.6
2017-Jun-19 14:30N 59°22' E 018°15'6 6.2
2017-Jun-19 13:30N 59°26' E 018°24'2 0.7
2017-Jun-19 10:47N 59°25' E 018°28'2 8.1
2017-Jun-19 10:30N 59°26' E 018°23'3 5.9
2017-Jun-19 10:00N 59°23' E 018°20'5 9.5
2017-Jun-19 09:30N 59°20' E 018°13'4 8.5
2017-Jun-19 09:01N 59°20' E 018°05'0 0.1
2017-Jun-19 08:30N 59°20' E 018°05'0 0.0
2017-Jun-19 08:00N 59°20' E 018°05'0 0.0
2017-Jun-19 07:30N 59°20' E 018°05'0 0.0
2017-Jun-19 07:00N 59°20' E 018°05'0 0.0
2017-Jun-19 06:30N 59°20' E 018°05'0 0.0
2017-Jun-19 06:00N 59°20' E 018°05'0 0.0
2017-Jun-19 05:30N 59°20' E 018°05'0 0.0
2017-Jun-19 05:00N 59°20' E 018°05'0 0.0
2017-Jun-19 04:30N 59°20' E 018°05'0 0.0
2017-Jun-19 04:00N 59°20' E 018°05'0 0.0
2017-Jun-19 03:30N 59°20' E 018°05'0 0.0
2017-Jun-19 03:00N 59°20' E 018°05'0 0.0
2017-Jun-19 02:30N 59°20' E 018°05'0 0.0
2017-Jun-19 02:00N 59°20' E 018°05'0 0.0
2017-Jun-19 01:30N 59°20' E 018°05'0 0.0
2017-Jun-19 01:00N 59°20' E 018°05'0 0.0
2017-Jun-19 00:30N 59°20' E 018°05'0 0.0
2017-Jun-19 00:00N 59°20' E 018°05'0 0.0
2017-Jun-18 23:30N 59°20' E 018°05'0 0.0
2017-Jun-18 23:00N 59°20' E 018°05'0 0.0
2017-Jun-18 22:30N 59°20' E 018°05'0 0.0
2017-Jun-18 22:00N 59°20' E 018°05'0 0.0
2017-Jun-18 21:30N 59°20' E 018°05'0 0.0
2017-Jun-18 21:00N 59°20' E 018°05'0 0.0
2017-Jun-18 20:30N 59°20' E 018°05'0 0.0
2017-Jun-18 20:00N 59°20' E 018°05'0 0.0
2017-Jun-18 19:30N 59°20' E 018°05'0 0.0
2017-Jun-18 19:00N 59°20' E 018°05'0 0.0
2017-Jun-18 18:30N 59°20' E 018°05'0 0.0
2017-Jun-18 18:00N 59°20' E 018°05'0 0.0
2017-Jun-18 17:30N 59°20' E 018°05'0 0.0
2017-Jun-18 17:00N 59°20' E 018°05'0 0.0
2017-Jun-18 16:31N 59°20' E 018°05'4 7.8
2017-Jun-18 16:00N 59°20' E 018°12'3 6.2
2017-Jun-18 15:30N 59°22' E 018°17'3 5.8
2017-Jun-18 14:59N 59°24' E 018°21'4 2.2
2017-Jun-18 13:13N 59°25' E 018°29'2 6.0
2017-Jun-18 12:56N 59°26' E 018°25'2 5.7
2017-Jun-18 12:30N 59°24' E 018°21'3 5.2
2017-Jun-18 12:00N 59°22' E 018°19'4 8.2
2017-Jun-18 11:30N 59°20' E 018°12'4 7.3
2017-Jun-18 11:00N 59°20' E 018°05'0 0.0
2017-Jun-18 10:30N 59°20' E 018°05'0 0.0
2017-Jun-18 10:00N 59°20' E 018°05'0 0.0
2017-Jun-18 09:30N 59°20' E 018°05'0 0.0
2017-Jun-18 09:00N 59°20' E 018°05'0 0.0
2017-Jun-18 08:30N 59°20' E 018°05'0 0.0
2017-Jun-18 08:00N 59°20' E 018°05'0 0.0
2017-Jun-18 07:30N 59°20' E 018°05'0 0.0
2017-Jun-18 07:00N 59°20' E 018°05'0 0.0
2017-Jun-18 06:30N 59°20' E 018°05'0 0.0
2017-Jun-18 06:00N 59°20' E 018°05'0 0.0
2017-Jun-18 05:30N 59°20' E 018°05'0 0.0
2017-Jun-18 05:00N 59°20' E 018°05'0 0.0
2017-Jun-18 04:30N 59°20' E 018°05'0 0.0
2017-Jun-18 04:00N 59°20' E 018°05'0 0.0
2017-Jun-18 03:30N 59°20' E 018°05'0 0.0
2017-Jun-18 03:00N 59°20' E 018°05'0 0.0
2017-Jun-18 02:30N 59°20' E 018°05'0 0.0
2017-Jun-18 02:00N 59°20' E 018°05'0 0.0
2017-Jun-18 01:30N 59°20' E 018°05'0 0.0
2017-Jun-18 01:00N 59°20' E 018°05'0 0.0
2017-Jun-18 00:30N 59°20' E 018°05'0 0.0
2017-Jun-18 00:00N 59°20' E 018°05'0 0.0
2017-Jun-17 23:30N 59°20' E 018°05'0 0.0
2017-Jun-17 23:00N 59°20' E 018°05'0 0.0
2017-Jun-17 22:30N 59°20' E 018°05'0 0.0
2017-Jun-17 22:00N 59°20' E 018°05'0 0.0
2017-Jun-17 21:30N 59°20' E 018°05'0 0.0
2017-Jun-17 21:00N 59°20' E 018°05'0 0.0
2017-Jun-17 20:30N 59°20' E 018°05'0 0.0
2017-Jun-17 20:00N 59°20' E 018°05'0 0.0
2017-Jun-17 19:30N 59°20' E 018°05'0 0.0
2017-Jun-17 19:00N 59°20' E 018°05'0 0.0
2017-Jun-17 18:30N 59°20' E 018°05'0 0.0
2017-Jun-17 18:00N 59°20' E 018°05'0 0.0
2017-Jun-17 17:30N 59°20' E 018°05'0 0.0
2017-Jun-17 17:00N 59°20' E 018°05'0 0.0
2017-Jun-17 16:30N 59°20' E 018°05'0 0.0
2017-Jun-17 16:00N 59°20' E 018°05'0 0.0
2017-Jun-17 15:30N 59°20' E 018°05'1 1.9
2017-Jun-17 15:00N 59°19' E 018°06'8 8.1
2017-Jun-17 14:00N 59°23' E 018°20'1 2.5
2017-Jun-17 13:30N 59°24' E 018°22'2 2.2
2017-Jun-17 12:47N 59°23' E 018°25'1 5.1
2017-Jun-17 12:30N 59°24' E 018°22'1 2.8
2017-Jun-17 12:00N 59°23' E 018°20'5 9.5
2017-Jun-17 11:30N 59°20' E 018°13'4 8.1
2017-Jun-17 11:01N 59°20' E 018°05'0 0.1
2017-Jun-17 10:30N 59°20' E 018°05'0 0.0
2017-Jun-17 10:00N 59°20' E 018°05'0 0.0
2017-Jun-17 09:30N 59°20' E 018°05'0 0.0
2017-Jun-17 09:00N 59°20' E 018°05'0 0.0
2017-Jun-17 08:30N 59°20' E 018°05'0 0.0
2017-Jun-17 08:00N 59°20' E 018°05'0 0.0
2017-Jun-17 07:30N 59°20' E 018°05'0 0.0
2017-Jun-17 07:00N 59°20' E 018°05'0 0.0
2017-Jun-17 06:30N 59°20' E 018°05'0 0.0
2017-Jun-17 06:00N 59°20' E 018°05'0 0.0
2017-Jun-17 05:30N 59°20' E 018°05'0 0.0
2017-Jun-17 05:00N 59°20' E 018°05'0 0.0
2017-Jun-17 04:30N 59°20' E 018°05'0 0.0
2017-Jun-17 04:01N 59°20' E 018°05'0 0.0
2017-Jun-17 03:30N 59°20' E 018°05'0 0.0
2017-Jun-17 03:00N 59°20' E 018°05'0 0.0
2017-Jun-17 02:30N 59°20' E 018°05'0 0.0
2017-Jun-17 02:01N 59°20' E 018°05'0 0.0
2017-Jun-17 01:31N 59°20' E 018°05'  

Dump ship's entire track history